createdAt,value
2019-02-12T00:00:32.074Z,4.28
2019-02-12T00:03:00.392Z,4.29
2019-02-12T00:05:28.664Z,4.32
2019-02-12T00:07:56.929Z,4.32
2019-02-12T00:10:25.246Z,4.34
2019-02-12T00:12:53.596Z,4.37
2019-02-12T00:15:23.516Z,4.37
2019-02-12T00:17:51.850Z,4.36
2019-02-12T00:20:20.105Z,4.34
2019-02-12T00:22:48.382Z,4.37
2019-02-12T00:25:16.690Z,4.37
2019-02-12T00:27:44.963Z,4.36
2019-02-12T00:30:14.363Z,4.38
2019-02-12T00:32:42.747Z,4.37
2019-02-12T00:35:11.012Z,4.41
2019-02-12T00:37:39.294Z,4.41
2019-02-12T00:40:09.336Z,4.40
2019-02-12T00:42:37.615Z,4.36
2019-02-12T00:45:08.521Z,4.36
2019-02-12T00:47:36.828Z,4.31
2019-02-12T00:50:07.946Z,4.36
2019-02-12T00:52:36.676Z,4.32
2019-02-12T00:55:07.342Z,4.29
2019-02-12T00:57:35.621Z,4.31
2019-02-12T01:00:09.412Z,4.30
2019-02-12T01:02:37.721Z,4.27
2019-02-12T01:05:06.003Z,4.23
2019-02-12T01:07:34.278Z,4.23
2019-02-12T01:10:02.592Z,4.21
2019-02-12T01:12:30.865Z,4.19
2019-02-12T01:15:00.192Z,4.14
2019-02-12T01:17:28.536Z,4.16
2019-02-12T01:19:56.761Z,4.13
2019-02-12T01:22:25.097Z,4.11
2019-02-12T01:24:53.427Z,4.10
2019-02-12T01:27:21.695Z,4.10
2019-02-12T01:29:50.045Z,4.13
2019-02-12T01:32:21.625Z,4.07
2019-02-12T01:34:49.883Z,4.09
2019-02-12T01:37:18.159Z,4.05
2019-02-12T01:39:46.469Z,4.05
2019-02-12T01:42:14.803Z,4.06
2019-02-12T01:44:43.104Z,4.10
2019-02-12T01:47:11.413Z,4.08
2019-02-12T01:49:39.774Z,4.03
2019-02-12T01:52:08.054Z,4.05
2019-02-12T01:54:41.308Z,4.01
2019-02-12T01:57:09.587Z,3.96
2019-02-12T01:59:37.863Z,3.96
2019-02-12T02:02:06.170Z,3.85
2019-02-12T02:04:34.435Z,3.85
2019-02-12T02:07:02.714Z,3.83
2019-02-12T02:09:31.008Z,3.87
2019-02-12T02:11:59.282Z,3.77
2019-02-12T02:14:27.545Z,3.82
2019-02-12T02:16:56.674Z,3.79
2019-02-12T02:19:24.952Z,3.75
2019-02-12T02:21:53.227Z,3.68
2019-02-12T02:24:21.550Z,3.68
2019-02-12T02:26:49.814Z,3.75
2019-02-12T02:29:18.095Z,3.74
2019-02-12T02:31:46.394Z,3.76
2019-02-12T02:34:14.674Z,3.79
2019-02-12T02:36:42.942Z,3.77
2019-02-12T02:39:11.260Z,3.78
2019-02-12T02:41:39.524Z,3.78
2019-02-12T02:44:07.799Z,3.79
2019-02-12T02:46:36.126Z,3.77
2019-02-12T02:49:04.448Z,3.83
2019-02-12T02:51:34.359Z,3.84
2019-02-12T02:54:02.676Z,3.84
2019-02-12T02:56:30.928Z,3.85
2019-02-12T02:58:59.199Z,3.85
2019-02-12T03:01:27.498Z,3.87
2019-02-12T03:03:55.762Z,3.89
2019-02-12T03:06:24.025Z,3.94
2019-02-12T03:08:52.323Z,3.97
2019-02-12T03:11:20.582Z,3.99
2019-02-12T03:13:48.851Z,3.99
2019-02-12T03:16:17.157Z,3.97
2019-02-12T03:18:45.448Z,4.01
2019-02-12T03:21:13.733Z,4.01
2019-02-12T03:23:42.037Z,4.01
2019-02-12T03:26:10.293Z,4.06
2019-02-12T03:28:38.574Z,4.02
2019-02-12T03:31:06.870Z,4.02
2019-02-12T03:33:35.138Z,4.03
2019-02-12T03:36:03.415Z,4.05
2019-02-12T03:38:31.713Z,4.05
2019-02-12T03:40:59.994Z,4.08
2019-02-12T03:43:28.265Z,4.06
2019-02-12T03:45:56.565Z,4.06
2019-02-12T03:48:24.921Z,4.06
2019-02-12T03:50:53.184Z,4.00
2019-02-12T03:53:22.497Z,4.03
2019-02-12T03:55:50.779Z,4.03
2019-02-12T03:58:19.043Z,4.05
2019-02-12T04:00:47.339Z,4.06
2019-02-12T04:03:15.608Z,4.06
2019-02-12T04:05:43.905Z,4.03
2019-02-12T04:08:12.203Z,3.98
2019-02-12T04:10:40.478Z,4.02
2019-02-12T04:13:08.746Z,4.00
2019-02-12T04:15:37.143Z,4.00
2019-02-12T04:18:05.438Z,3.98
2019-02-12T04:20:34.705Z,3.98
2019-02-12T04:23:03.011Z,3.87
2019-02-12T04:25:31.276Z,3.87
2019-02-12T04:27:59.544Z,3.91
2019-02-12T04:30:27.936Z,3.91
2019-02-12T04:32:56.185Z,3.92
2019-02-12T04:35:24.433Z,3.93
2019-02-12T04:37:52.743Z,3.90
2019-02-12T04:40:21.005Z,3.91
2019-02-12T04:42:49.269Z,3.91
2019-02-12T04:45:17.571Z,3.91
2019-02-12T04:47:45.838Z,3.90
2019-02-12T04:50:15.236Z,3.90
2019-02-12T04:52:43.525Z,3.93
2019-02-12T04:55:12.254Z,3.96
2019-02-12T04:57:40.516Z,3.92
2019-02-12T05:00:11.940Z,3.97
2019-02-12T05:02:40.277Z,3.97
2019-02-12T05:05:10.315Z,3.94
2019-02-12T05:07:38.587Z,3.97
2019-02-12T05:10:21.962Z,3.94
2019-02-12T05:12:50.271Z,3.94
2019-02-12T05:15:18.537Z,3.93
2019-02-12T05:17:46.802Z,3.93
2019-02-12T05:20:15.412Z,3.87
2019-02-12T05:22:44.030Z,3.85
2019-02-12T05:25:12.470Z,3.85
2019-02-12T05:27:40.882Z,3.86
2019-02-12T05:30:13.683Z,3.86
2019-02-12T05:32:41.943Z,3.81
2019-02-12T05:35:10.242Z,3.75
2019-02-12T05:37:38.520Z,3.75
2019-02-12T05:40:09.358Z,3.68
2019-02-12T05:42:37.645Z,3.67
2019-02-12T05:45:11.206Z,3.66
2019-02-12T05:47:39.537Z,3.71
2019-02-12T05:50:16.761Z,3.68
2019-02-12T05:52:54.028Z,3.68
2019-02-12T05:55:15.040Z,3.60
2019-02-12T05:57:43.427Z,3.60
2019-02-12T06:00:20.857Z,3.62
2019-02-12T06:02:49.166Z,3.61
2019-02-12T06:05:25.875Z,3.58
2019-02-12T06:07:54.184Z,3.58
2019-02-12T06:10:22.669Z,3.57
2019-02-12T06:12:50.937Z,3.59
2019-02-12T06:15:19.251Z,3.55
2019-02-12T06:17:47.519Z,3.55
2019-02-12T06:20:15.789Z,3.57
2019-02-12T06:22:44.125Z,3.58
2019-02-12T06:25:12.526Z,3.52
2019-02-12T06:27:40.752Z,3.52
2019-02-12T06:30:10.515Z,3.49
2019-02-12T06:32:38.794Z,3.52
2019-02-12T06:35:09.692Z,3.52
2019-02-12T06:37:41.398Z,3.55
2019-02-12T06:40:11.124Z,3.55
2019-02-12T06:42:39.408Z,3.57
2019-02-12T06:45:10.355Z,3.57
2019-02-12T06:47:38.623Z,3.59
2019-02-12T06:50:09.938Z,3.56
2019-02-12T06:52:38.234Z,3.59
2019-02-12T06:55:08.350Z,3.59
2019-02-12T06:57:36.949Z,3.53
2019-02-12T07:00:11.146Z,3.53
2019-02-12T07:03:16.880Z,3.55
2019-02-12T07:05:51.422Z,3.55
2019-02-12T07:08:39.372Z,3.60
2019-02-12T07:11:16.647Z,3.60
2019-02-12T07:13:59.945Z,3.64
2019-02-12T07:16:49.210Z,3.64
2019-02-12T07:19:20.732Z,3.59
2019-02-12T07:22:04.039Z,3.63
2019-02-12T07:24:44.961Z,3.68
2019-02-12T07:27:22.651Z,3.70
2019-02-12T07:29:54.202Z,3.66
2019-02-12T07:32:28.244Z,3.71
2019-02-12T07:35:22.855Z,3.74
2019-02-12T07:37:57.174Z,3.74
2019-02-12T07:40:29.302Z,3.75
2019-02-12T07:43:06.584Z,3.75
2019-02-12T07:45:38.120Z,3.74
2019-02-12T07:48:24.465Z,3.78
2019-02-12T07:51:24.730Z,3.82
2019-02-12T07:54:08.236Z,3.82
2019-02-12T07:56:48.753Z,3.82
2019-02-12T07:59:44.475Z,3.88
2019-02-12T08:02:33.944Z,3.88
2019-02-12T08:05:20.728Z,3.90
2019-02-12T08:08:14.941Z,3.98
2019-02-12T08:11:21.406Z,3.98
2019-02-12T08:13:52.965Z,4.00
2019-02-12T08:16:27.205Z,4.04
2019-02-12T08:19:01.813Z,4.07
2019-02-12T08:21:39.066Z,4.18
2019-02-12T08:24:28.805Z,4.25
2019-02-12T08:27:00.381Z,4.25
2019-02-12T08:29:41.369Z,4.31
2019-02-12T08:32:26.217Z,4.29
2019-02-12T08:35:14.112Z,4.31
2019-02-12T08:37:54.461Z,4.27
2019-02-12T08:40:28.782Z,4.44
2019-02-12T08:43:12.024Z,4.39
2019-02-12T08:46:03.293Z,4.39
2019-02-12T08:48:43.814Z,4.33
2019-02-12T08:51:24.162Z,4.31
2019-02-12T08:54:01.338Z,4.31
2019-02-12T08:56:44.670Z,4.27
2019-02-12T08:59:22.280Z,4.42
2019-02-12T09:02:05.722Z,4.27
2019-02-12T09:04:54.671Z,4.25
2019-02-12T09:07:34.829Z,4.26
2019-02-12T09:10:20.477Z,4.20
2019-02-12T09:13:00.694Z,4.24
2019-02-12T09:15:50.300Z,4.16
2019-02-12T09:18:27.368Z,4.11
2019-02-12T09:21:28.814Z,4.05
2019-02-12T09:24:22.883Z,4.20
2019-02-12T09:27:09.419Z,4.21
2019-02-12T09:29:55.620Z,4.29
2019-02-12T09:32:47.630Z,4.32
2019-02-12T09:35:24.952Z,4.28
2019-02-12T09:37:59.285Z,4.26
2019-02-12T09:40:39.512Z,4.27
2019-02-12T09:43:39.676Z,4.17
2019-02-12T09:46:13.950Z,4.19
2019-02-12T09:49:02.409Z,4.20
2019-02-12T09:51:56.833Z,4.18
2019-02-12T09:54:30.056Z,4.21
2019-02-12T09:57:21.342Z,4.30
2019-02-12T10:00:16.188Z,4.25
2019-02-12T10:03:10.440Z,4.31
2019-02-12T10:05:44.810Z,4.31
2019-02-12T10:08:39.450Z,4.38
2019-02-12T10:11:16.773Z,4.39
2019-02-12T10:13:48.548Z,4.43
2019-02-12T10:16:31.822Z,4.54
2019-02-12T10:19:08.022Z,4.62
2019-02-12T10:21:51.391Z,4.67
2019-02-12T10:24:36.999Z,4.79
2019-02-12T10:27:13.950Z,4.95
2019-02-12T10:30:00.429Z,4.96
2019-02-12T10:32:28.026Z,5.03
2019-02-12T10:34:57.128Z,5.36
2019-02-12T10:37:25.579Z,5.52
2019-02-12T10:39:53.877Z,5.39
2019-02-12T10:42:23.785Z,5.50
2019-02-12T10:44:52.055Z,5.46
2019-02-12T10:47:25.270Z,5.48
2019-02-12T10:49:55.170Z,5.40
2019-02-12T10:52:25.081Z,5.46
2019-02-12T10:54:56.635Z,5.45
2019-02-12T10:57:24.916Z,5.41
2019-02-12T10:59:54.823Z,5.45
2019-02-12T11:02:24.198Z,5.45
2019-02-12T11:04:54.124Z,5.46
2019-02-12T11:07:25.010Z,5.52
2019-02-12T11:09:54.194Z,5.57
2019-02-12T11:12:22.466Z,5.51
2019-02-12T11:14:50.738Z,5.44
2019-02-12T11:17:24.682Z,5.54
2019-02-12T11:19:56.225Z,5.52
2019-02-12T11:22:26.139Z,5.70
2019-02-12T11:24:56.109Z,5.66
2019-02-12T11:27:24.591Z,5.64
2019-02-12T11:29:52.880Z,5.64
2019-02-12T11:32:21.188Z,5.66
2019-02-12T11:34:53.748Z,5.67
2019-02-12T11:37:22.026Z,5.67
2019-02-12T11:39:51.999Z,5.49
2019-02-12T11:42:25.012Z,5.48
2019-02-12T11:44:54.316Z,5.54
2019-02-12T11:47:24.346Z,5.54
2019-02-12T11:49:53.740Z,5.52
2019-02-12T11:52:22.012Z,5.54
2019-02-12T11:54:51.955Z,5.50
2019-02-12T11:57:23.040Z,5.57
2019-02-12T11:59:52.384Z,5.49
2019-02-12T12:02:22.570Z,5.58
2019-02-12T12:04:52.470Z,5.52
2019-02-12T12:07:20.736Z,5.57
2019-02-12T12:09:49.038Z,5.57
2019-02-12T12:12:19.806Z,5.58
2019-02-12T12:14:48.502Z,5.57
2019-02-12T12:17:18.708Z,5.51
2019-02-12T12:19:47.675Z,5.49
2019-02-12T12:22:21.056Z,5.48
2019-02-12T12:24:51.541Z,5.51
2019-02-12T12:27:19.366Z,5.49
2019-02-12T12:29:47.640Z,5.43
2019-02-12T12:32:15.948Z,5.43
2019-02-12T12:34:45.866Z,5.44
2019-02-12T12:37:15.534Z,5.46
2019-02-12T12:39:48.779Z,5.47
2019-02-12T12:42:17.073Z,5.50
2019-02-12T12:44:48.602Z,5.44
2019-02-12T12:47:17.581Z,5.49
2019-02-12T12:49:47.555Z,5.51
2019-02-12T12:52:19.147Z,5.48
2019-02-12T12:54:49.038Z,5.47
2019-02-12T12:57:18.999Z,5.51
2019-02-12T12:59:49.486Z,5.47
2019-02-12T13:02:18.832Z,5.49
2019-02-12T13:04:48.734Z,5.49
2019-02-12T13:07:17.025Z,5.49
2019-02-12T13:09:46.987Z,5.57
2019-02-12T13:12:17.025Z,5.50
2019-02-12T13:14:49.619Z,5.52
2019-02-12T13:17:17.932Z,5.51
2019-02-12T13:19:47.844Z,5.50
2019-02-12T13:22:17.742Z,5.53
2019-02-12T13:24:52.459Z,5.49
2019-02-12T13:27:20.813Z,5.50
2019-02-12T13:29:50.712Z,5.51
2019-02-12T13:32:20.891Z,5.52
2019-02-12T13:34:50.790Z,5.41
2019-02-12T13:37:19.135Z,5.44
2019-02-12T13:39:47.427Z,5.44
2019-02-12T13:42:16.626Z,5.42
2019-02-12T13:44:44.881Z,5.44
2019-02-12T13:47:13.200Z,5.40
2019-02-12T13:49:41.481Z,5.40
2019-02-12T13:52:09.925Z,5.42
2019-02-12T13:54:38.234Z,5.42
2019-02-12T13:57:06.602Z,5.42
2019-02-12T13:59:34.882Z,5.43
2019-02-12T14:02:03.462Z,5.41
2019-02-12T14:04:33.509Z,5.39
2019-02-12T14:07:01.852Z,5.42
2019-02-12T14:09:33.415Z,5.45
2019-02-12T14:12:06.574Z,5.47
2019-02-12T14:14:35.790Z,5.47
2019-02-12T14:17:04.166Z,5.46
2019-02-12T14:19:34.068Z,5.44
2019-02-12T14:22:02.358Z,5.48
2019-02-12T14:24:36.364Z,5.48
2019-02-12T14:27:04.653Z,5.44
2019-02-12T14:29:34.558Z,5.42
2019-02-12T14:32:02.923Z,5.42
2019-02-12T14:34:31.192Z,5.41
2019-02-12T14:36:59.462Z,5.39
2019-02-12T14:39:31.718Z,5.43
2019-02-12T14:41:59.989Z,5.48
2019-02-12T14:44:28.265Z,5.47
2019-02-12T14:46:56.585Z,5.44
2019-02-12T14:49:24.924Z,5.45
2019-02-12T14:51:53.198Z,5.40
2019-02-12T14:54:25.364Z,5.41
2019-02-12T14:56:55.273Z,5.40
2019-02-12T14:59:27.519Z,5.42
2019-02-12T15:01:59.416Z,5.40
2019-02-12T15:04:30.592Z,5.43
2019-02-12T15:07:00.542Z,5.41
2019-02-12T15:09:30.445Z,5.44
2019-02-12T15:12:00.355Z,5.47
2019-02-12T15:14:28.925Z,5.49
2019-02-12T15:16:59.695Z,5.51
2019-02-12T15:19:27.981Z,5.53
2019-02-12T15:21:58.311Z,5.55
2019-02-12T15:24:30.343Z,5.57
2019-02-12T15:27:00.259Z,5.61
2019-02-12T15:29:28.592Z,5.57
2019-02-12T15:31:58.528Z,5.60
2019-02-12T15:34:28.429Z,5.57
2019-02-12T15:37:01.071Z,5.55
2019-02-12T15:39:30.962Z,5.57
2019-02-12T15:42:01.729Z,5.55
2019-02-12T15:44:30.701Z,5.56
2019-02-12T15:47:03.590Z,5.45
2019-02-12T15:49:35.180Z,5.28
2019-02-12T15:52:06.721Z,5.28
2019-02-12T15:54:38.243Z,5.21
2019-02-12T15:57:08.190Z,5.06
2019-02-12T15:59:38.104Z,5.06
2019-02-12T16:02:06.400Z,4.96
2019-02-12T16:04:39.021Z,4.92
2019-02-12T16:07:09.000Z,4.92
2019-02-12T16:09:37.268Z,4.88
2019-02-12T16:12:11.032Z,4.83
2019-02-12T16:14:40.114Z,4.85
2019-02-12T16:17:12.372Z,4.81
2019-02-12T16:19:41.527Z,4.80
2019-02-12T16:22:11.426Z,4.77
2019-02-12T16:24:42.394Z,4.73
2019-02-12T16:27:13.985Z,4.69
2019-02-12T16:29:44.687Z,4.64
2019-02-12T16:32:12.958Z,4.60
2019-02-12T16:34:41.937Z,4.54
2019-02-12T16:37:10.220Z,4.50
2019-02-12T16:39:41.838Z,4.47
2019-02-12T16:42:11.774Z,4.44
2019-02-12T16:44:39.861Z,4.38
2019-02-12T16:47:07.989Z,4.34
2019-02-12T16:49:37.047Z,4.29
2019-02-12T16:52:08.601Z,4.25
2019-02-12T16:54:40.695Z,4.16
2019-02-12T16:57:10.668Z,4.11
2019-02-12T16:59:38.930Z,4.10
2019-02-12T17:02:07.227Z,4.04
2019-02-12T17:04:35.646Z,3.97
2019-02-12T17:07:04.015Z,3.90
2019-02-12T17:09:32.284Z,3.85
2019-02-12T17:12:00.853Z,3.80
2019-02-12T17:14:29.233Z,3.77
2019-02-12T17:17:00.194Z,3.77
2019-02-12T17:19:28.504Z,3.72
2019-02-12T17:21:59.320Z,3.69
2019-02-12T17:24:27.589Z,3.68
2019-02-12T17:26:58.258Z,3.69
2019-02-12T17:29:26.532Z,3.65
2019-02-12T17:31:54.809Z,3.67
2019-02-12T17:34:23.115Z,3.67
2019-02-12T17:36:51.378Z,3.66
2019-02-12T17:39:19.661Z,3.70
2019-02-12T17:41:50.117Z,3.71
2019-02-12T17:44:20.015Z,3.65
2019-02-12T17:46:49.938Z,3.68
2019-02-12T17:49:19.011Z,3.67
2019-02-12T17:51:48.993Z,3.67
2019-02-12T17:54:17.370Z,3.61
2019-02-12T17:56:46.554Z,3.61
2019-02-12T17:59:16.537Z,3.56
2019-02-12T18:01:46.706Z,3.52
2019-02-12T18:04:15.048Z,3.54
2019-02-12T18:06:44.094Z,3.54
2019-02-12T18:09:13.253Z,3.52
2019-02-12T18:11:44.814Z,3.57
2019-02-12T18:14:13.079Z,3.56
2019-02-12T18:16:41.355Z,3.55
2019-02-12T18:19:09.652Z,3.55
2019-02-12T18:21:38.086Z,3.28
2019-02-12T18:24:07.447Z,3.14
2019-02-12T18:26:35.949Z,3.07
2019-02-12T18:29:04.229Z,3.07
2019-02-12T18:31:32.495Z,3.10
2019-02-12T18:34:00.822Z,3.08
2019-02-12T18:36:29.107Z,2.83
2019-02-12T18:38:57.523Z,2.70
2019-02-12T18:41:25.832Z,2.47
2019-02-12T18:43:54.283Z,2.43
2019-02-12T18:46:22.567Z,2.43
2019-02-12T18:48:50.890Z,2.43
2019-02-12T18:51:19.177Z,2.36
2019-02-12T18:53:47.469Z,2.46
2019-02-12T18:56:16.014Z,2.58
2019-02-12T18:58:44.367Z,2.58
2019-02-12T19:01:12.763Z,2.57
2019-02-12T19:03:41.278Z,2.60
2019-02-12T19:06:09.558Z,2.63
2019-02-12T19:08:37.837Z,2.63
2019-02-12T19:11:06.320Z,2.69
2019-02-12T19:13:34.778Z,2.72
2019-02-12T19:16:03.057Z,2.72
2019-02-12T19:18:31.363Z,2.76
2019-02-12T19:20:59.774Z,2.76
2019-02-12T19:23:28.055Z,2.79
2019-02-12T19:25:56.407Z,2.79
2019-02-12T19:28:24.769Z,2.74
2019-02-12T19:30:53.035Z,2.74
2019-02-12T19:33:21.383Z,2.78
2019-02-12T19:35:49.669Z,2.75
2019-02-12T19:38:17.971Z,2.75
2019-02-12T19:40:46.293Z,2.74
2019-02-12T19:43:15.544Z,2.68
2019-02-12T19:45:44.027Z,2.68
2019-02-12T19:48:12.344Z,2.68
2019-02-12T19:50:40.638Z,2.72
2019-02-12T19:53:08.929Z,2.68
2019-02-12T19:55:37.251Z,2.65
2019-02-12T19:58:05.569Z,2.65
2019-02-12T20:00:33.805Z,2.57
2019-02-12T20:03:05.656Z,2.53
2019-02-12T20:05:34.001Z,2.53
2019-02-12T20:08:02.359Z,2.47
2019-02-12T20:10:30.789Z,2.45
2019-02-12T20:12:59.139Z,2.45
2019-02-12T20:15:27.494Z,2.43
2019-02-12T20:17:55.984Z,2.40
2019-02-12T20:20:24.444Z,2.40
2019-02-12T20:22:52.868Z,2.43
2019-02-12T20:25:21.180Z,2.43
2019-02-12T20:27:49.460Z,2.35
2019-02-12T20:30:18.891Z,2.32
2019-02-12T20:32:47.200Z,2.32
2019-02-12T20:35:20.240Z,2.31
2019-02-12T20:37:48.523Z,2.26
2019-02-12T20:40:16.973Z,2.26
2019-02-12T20:42:45.281Z,2.24
2019-02-12T20:45:16.051Z,2.18
2019-02-12T20:47:44.473Z,2.18
2019-02-12T20:50:14.590Z,2.10
2019-02-12T20:52:43.126Z,2.08
2019-02-12T20:55:12.604Z,2.09
2019-02-12T20:57:40.889Z,2.00
2019-02-12T21:00:20.890Z,2.00
2019-02-12T21:02:49.185Z,1.98
2019-02-12T21:05:17.557Z,2.05
2019-02-12T21:07:46.008Z,2.04
2019-02-12T21:10:17.192Z,2.09
2019-02-12T21:12:45.473Z,2.07
2019-02-12T21:15:19.792Z,2.05
2019-02-12T21:17:50.554Z,2.03
2019-02-12T21:20:18.910Z,2.03
2019-02-12T21:22:47.255Z,2.10
2019-02-12T21:25:15.615Z,2.10
2019-02-12T21:27:43.925Z,2.08
2019-02-12T21:30:18.129Z,2.09
2019-02-12T21:32:46.474Z,2.05
2019-02-12T21:35:14.781Z,2.02
2019-02-12T21:37:43.114Z,2.01
2019-02-12T21:40:14.023Z,2.01
2019-02-12T21:42:42.352Z,1.96
2019-02-12T21:45:12.813Z,1.90
2019-02-12T21:47:41.193Z,1.86
2019-02-12T21:50:31.368Z,1.86
2019-02-12T21:52:59.617Z,1.79
2019-02-12T21:55:27.976Z,1.75
2019-02-12T21:57:56.476Z,1.75
2019-02-12T22:00:24.761Z,1.72
2019-02-12T22:02:53.074Z,1.66
2019-02-12T22:05:21.387Z,1.72
2019-02-12T22:07:49.762Z,1.67
2019-02-12T22:10:21.043Z,1.67
2019-02-12T22:12:49.463Z,1.63
2019-02-12T22:15:17.754Z,1.56
2019-02-12T22:17:47.700Z,1.56
2019-02-12T22:20:20.602Z,1.56
2019-02-12T22:22:48.910Z,1.51
2019-02-12T22:25:17.237Z,1.51
2019-02-12T22:27:45.591Z,1.47
2019-02-12T22:30:21.836Z,1.46
2019-02-12T22:32:51.794Z,1.44
2019-02-12T22:35:20.183Z,1.45
2019-02-12T22:37:48.463Z,1.43
2019-02-12T22:40:17.846Z,1.41
2019-02-12T22:42:46.190Z,1.36
2019-02-12T22:45:16.307Z,1.36
2019-02-12T22:47:44.641Z,1.37
2019-02-12T22:50:13.567Z,1.35
2019-02-12T22:52:41.923Z,1.33
2019-02-12T22:55:10.872Z,1.33
2019-02-12T22:57:39.141Z,1.33
2019-02-12T23:00:26.972Z,1.31
2019-02-12T23:02:55.395Z,1.32
2019-02-12T23:05:23.669Z,1.32
2019-02-12T23:07:51.993Z,1.29
2019-02-12T23:10:20.327Z,1.29
2019-02-12T23:12:52.548Z,1.27
2019-02-12T23:15:22.383Z,1.20
2019-02-12T23:17:52.282Z,1.23
2019-02-12T23:20:26.610Z,1.23
2019-02-12T23:22:56.797Z,1.20
2019-02-12T23:25:26.705Z,1.20
2019-02-12T23:27:57.653Z,1.20
2019-02-12T23:30:25.210Z,1.20
2019-02-12T23:32:55.128Z,1.15
2019-02-12T23:35:25.144Z,1.15
2019-02-12T23:37:53.447Z,1.16
2019-02-12T23:40:21.812Z,1.13
2019-02-12T23:42:50.130Z,1.13
2019-02-12T23:45:18.434Z,1.05
2019-02-12T23:47:46.730Z,1.11
2019-02-12T23:50:15.010Z,1.06
2019-02-12T23:52:43.336Z,1.09
2019-02-12T23:55:11.628Z,1.05
2019-02-12T23:57:39.986Z,0.96
